createdAt,value
2023-05-12T00:01:53.206Z,100.00
2023-05-12T00:04:21.310Z,100.00
2023-05-12T00:06:49.674Z,100.00
2023-05-12T00:09:17.746Z,100.00
2023-05-12T00:11:45.775Z,100.00
2023-05-12T00:14:13.808Z,100.00
2023-05-12T00:16:41.954Z,100.00
2023-05-12T00:19:10.137Z,100.00
2023-05-12T00:21:38.244Z,100.00
2023-05-12T00:24:06.522Z,100.00
2023-05-12T00:26:34.466Z,100.00
2023-05-12T00:29:02.390Z,100.00
2023-05-12T00:31:32.084Z,100.00
2023-05-12T00:34:00.180Z,100.00
2023-05-12T00:36:28.209Z,100.00
2023-05-12T00:38:56.300Z,100.00
2023-05-12T00:41:24.211Z,100.00
2023-05-12T00:43:52.329Z,100.00
2023-05-12T00:46:20.329Z,100.00
2023-05-12T00:48:48.380Z,100.00
2023-05-12T00:51:17.268Z,100.00
2023-05-12T00:53:50.054Z,100.00
2023-05-12T00:56:22.043Z,100.00
2023-05-12T00:58:50.033Z,100.00
2023-05-12T01:01:18.059Z,100.00
2023-05-12T01:03:46.553Z,100.00
2023-05-12T01:06:19.600Z,100.00
2023-05-12T01:08:47.670Z,100.00
2023-05-12T01:11:15.679Z,100.00
2023-05-12T01:13:43.958Z,100.00
2023-05-12T01:16:12.012Z,100.00
2023-05-12T01:18:40.538Z,100.00
2023-05-12T01:21:08.539Z,100.00
2023-05-12T01:23:38.687Z,100.00
2023-05-12T01:26:08.528Z,100.00
2023-05-12T01:28:37.166Z,100.00
2023-05-12T01:31:05.608Z,100.00
2023-05-12T01:33:34.419Z,100.00
2023-05-12T01:36:02.426Z,100.00
2023-05-12T01:38:30.412Z,100.00
2023-05-12T01:40:58.421Z,100.00
2023-05-12T01:43:26.436Z,100.00
2023-05-12T01:45:54.578Z,100.00
2023-05-12T01:48:22.556Z,100.00
2023-05-12T01:50:50.553Z,100.00
2023-05-12T01:53:18.524Z,100.00
2023-05-12T01:55:46.503Z,100.00
2023-05-12T01:58:14.560Z,100.00
2023-05-12T02:00:42.541Z,100.00
2023-05-12T02:03:10.744Z,100.00
2023-05-12T02:05:38.802Z,100.00
2023-05-12T02:08:06.949Z,100.00
2023-05-12T02:10:34.914Z,100.00
2023-05-12T02:13:02.884Z,100.00
2023-05-12T02:15:30.955Z,100.00
2023-05-12T02:17:59.744Z,100.00
2023-05-12T02:20:28.835Z,100.00
2023-05-12T02:22:56.976Z,100.00
2023-05-12T02:25:24.984Z,100.00
2023-05-12T02:27:52.971Z,100.00
2023-05-12T02:30:21.200Z,100.00
2023-05-12T02:32:49.484Z,100.00
2023-05-12T02:35:17.589Z,100.00
2023-05-12T02:37:45.552Z,100.00
2023-05-12T02:40:13.834Z,100.00
2023-05-12T02:42:41.815Z,100.00
2023-05-12T02:45:10.281Z,100.00
2023-05-12T02:47:38.419Z,100.00
2023-05-12T02:50:06.952Z,100.00
2023-05-12T02:52:34.993Z,100.00
2023-05-12T02:55:02.986Z,100.00
2023-05-12T02:57:35.201Z,100.00
2023-05-12T03:00:03.804Z,100.00
2023-05-12T03:02:31.842Z,100.00
2023-05-12T03:04:59.902Z,100.00
2023-05-12T03:07:28.405Z,100.00
2023-05-12T03:09:56.426Z,100.00
2023-05-12T03:12:24.396Z,100.00
2023-05-12T03:14:52.901Z,100.00
2023-05-12T03:17:20.902Z,100.00
2023-05-12T03:19:48.890Z,100.00
2023-05-12T03:22:16.898Z,100.00
2023-05-12T03:24:44.982Z,100.00
2023-05-12T03:27:13.875Z,100.00
2023-05-12T03:29:42.244Z,100.00
2023-05-12T03:32:10.220Z,100.00
2023-05-12T03:34:38.501Z,100.00
2023-05-12T03:37:06.590Z,100.00
2023-05-12T03:39:34.579Z,100.00
2023-05-12T03:42:02.624Z,100.00
2023-05-12T03:44:30.667Z,100.00
2023-05-12T03:46:58.859Z,100.00
2023-05-12T03:49:26.982Z,100.00
2023-05-12T03:51:54.949Z,100.00
2023-05-12T03:54:22.948Z,100.00
2023-05-12T03:56:50.948Z,100.00
2023-05-12T03:59:18.959Z,100.00
2023-05-12T04:01:47.000Z,100.00
2023-05-12T04:04:15.387Z,100.00
2023-05-12T04:06:43.536Z,100.00
2023-05-12T04:09:11.865Z,100.00
2023-05-12T04:11:39.894Z,100.00
2023-05-12T04:14:07.924Z,100.00
2023-05-12T04:16:36.952Z,100.00
2023-05-12T04:19:05.176Z,100.00
2023-05-12T04:21:34.529Z,100.00
2023-05-12T04:24:02.740Z,100.00
2023-05-12T04:26:30.690Z,100.00
2023-05-12T04:28:58.811Z,100.00
2023-05-12T04:31:26.947Z,100.00
2023-05-12T04:33:57.218Z,100.00
2023-05-12T04:36:25.244Z,100.00
2023-05-12T04:38:53.265Z,100.00
2023-05-12T04:41:21.249Z,100.00
2023-05-12T04:46:20.307Z,100.00
2023-05-12T04:48:48.263Z,100.00
2023-05-12T04:51:16.233Z,100.00
2023-05-12T04:53:44.249Z,100.00
2023-05-12T04:56:12.256Z,100.00
2023-05-12T04:58:40.204Z,100.00
2023-05-12T05:01:08.276Z,100.00
2023-05-12T05:03:36.389Z,100.00
2023-05-12T05:06:04.414Z,100.00
2023-05-12T05:08:32.377Z,100.00
2023-05-12T05:11:00.317Z,100.00
2023-05-12T05:13:28.249Z,100.00
2023-05-12T05:15:56.479Z,100.00
2023-05-12T05:18:24.737Z,100.00
2023-05-12T05:20:57.312Z,100.00
2023-05-12T05:23:27.248Z,100.00
2023-05-12T05:25:55.462Z,100.00
2023-05-12T05:28:23.471Z,100.00
2023-05-12T05:30:51.437Z,100.00
2023-05-12T05:33:19.479Z,100.00
2023-05-12T05:35:48.158Z,100.00
2023-05-12T05:38:16.081Z,100.00
2023-05-12T05:40:53.108Z,100.00
2023-05-12T05:43:22.370Z,100.00
2023-05-12T05:45:53.173Z,100.00
2023-05-12T05:48:21.185Z,100.00
2023-05-12T05:50:49.222Z,100.00
2023-05-12T05:53:19.038Z,100.00
2023-05-12T05:55:48.105Z,100.00
2023-05-12T05:58:16.943Z,100.00
2023-05-12T06:00:44.974Z,100.00
2023-05-12T06:03:13.100Z,100.00
2023-05-12T06:05:43.492Z,100.00
2023-05-12T06:08:14.649Z,100.00
2023-05-12T06:10:42.634Z,100.00
2023-05-12T06:13:10.635Z,100.00
2023-05-12T06:15:38.607Z,100.00
2023-05-12T06:18:06.769Z,100.00
2023-05-12T06:20:34.780Z,100.00
2023-05-12T06:23:02.798Z,100.00
2023-05-12T06:25:30.811Z,100.00
2023-05-12T06:27:58.727Z,100.00
2023-05-12T06:30:26.777Z,100.00
2023-05-12T06:32:54.890Z,100.00
2023-05-12T06:35:23.165Z,100.00
2023-05-12T06:37:52.238Z,100.00
2023-05-12T06:40:20.254Z,100.00
2023-05-12T06:42:48.276Z,100.00
2023-05-12T06:45:16.332Z,100.00
2023-05-12T06:47:44.588Z,100.00
2023-05-12T06:50:12.688Z,100.00
2023-05-12T06:52:40.652Z,100.00
2023-05-12T06:55:09.085Z,100.00
2023-05-12T06:57:37.050Z,100.00
2023-05-12T07:00:06.369Z,100.00
2023-05-12T07:02:34.330Z,100.00
2023-05-12T07:05:03.302Z,100.00
2023-05-12T07:07:31.458Z,100.00
2023-05-12T07:09:59.567Z,100.00
2023-05-12T07:12:27.529Z,100.00
2023-05-12T07:14:55.492Z,100.00
2023-05-12T07:17:23.720Z,100.00
2023-05-12T07:19:51.826Z,100.00
2023-05-12T07:22:26.564Z,100.00
2023-05-12T07:24:54.629Z,100.00
2023-05-12T07:27:22.712Z,100.00
2023-05-12T07:29:50.663Z,100.00
2023-05-12T07:32:18.645Z,100.00
2023-05-12T07:34:46.612Z,100.00
2023-05-12T07:37:14.597Z,100.00
2023-05-12T07:39:42.696Z,100.00
2023-05-12T07:42:10.928Z,100.00
2023-05-12T07:47:29.947Z,100.00
2023-05-12T07:49:58.016Z,100.00
2023-05-12T07:52:26.118Z,100.00
2023-05-12T07:54:54.446Z,100.00
2023-05-12T07:57:22.816Z,100.00
2023-05-12T07:59:50.889Z,100.00
2023-05-12T08:02:18.904Z,99.94
2023-05-12T08:04:46.931Z,98.34
2023-05-12T08:07:15.036Z,98.75
2023-05-12T08:09:42.997Z,98.86
2023-05-12T08:14:38.932Z,97.11
2023-05-12T08:17:08.279Z,97.92
2023-05-12T08:19:36.717Z,97.29
2023-05-12T08:22:04.980Z,96.30
2023-05-12T08:24:33.241Z,93.73
2023-05-12T08:27:01.440Z,97.82
2023-05-12T08:29:29.561Z,98.57
2023-05-12T08:31:57.729Z,90.66
2023-05-12T08:34:26.342Z,90.49
2023-05-12T08:36:54.811Z,93.24
2023-05-12T08:39:23.240Z,90.00
2023-05-12T08:42:04.015Z,91.68
2023-05-12T08:44:32.803Z,91.77
2023-05-12T08:47:01.234Z,86.15
2023-05-12T08:49:29.648Z,87.43
2023-05-12T08:51:58.580Z,89.01
2023-05-12T08:54:27.791Z,86.45
2023-05-12T08:59:27.667Z,81.17
2023-05-12T09:01:56.531Z,81.28
2023-05-12T09:04:24.783Z,77.97
2023-05-12T09:06:55.612Z,81.75
2023-05-12T09:09:24.108Z,78.77
2023-05-12T09:11:52.229Z,79.71
2023-05-12T09:14:20.721Z,78.74
2023-05-12T09:16:50.552Z,78.28
2023-05-12T09:19:22.515Z,79.31
2023-05-12T09:21:50.748Z,74.61
2023-05-12T09:24:19.127Z,74.75
2023-05-12T09:26:51.791Z,77.19
2023-05-12T09:29:30.762Z,75.69
2023-05-12T09:32:05.131Z,71.38
2023-05-12T09:34:39.689Z,70.87
2023-05-12T09:37:08.426Z,70.42
2023-05-12T09:39:37.632Z,70.71
2023-05-12T09:42:06.465Z,72.50
2023-05-12T09:44:34.822Z,74.25
2023-05-12T09:47:09.656Z,74.05
2023-05-12T09:49:37.796Z,73.49
2023-05-12T09:52:06.681Z,76.62
2023-05-12T09:54:35.707Z,76.68
2023-05-12T09:57:06.322Z,77.80
2023-05-12T09:59:35.810Z,76.90
2023-05-12T10:02:07.623Z,77.17
2023-05-12T10:04:47.377Z,78.58
2023-05-12T10:07:15.747Z,77.76
2023-05-12T10:09:44.115Z,79.70
2023-05-12T10:12:12.627Z,80.12
2023-05-12T10:14:40.658Z,81.38
2023-05-12T10:17:08.914Z,81.27
2023-05-12T10:19:37.542Z,81.21
2023-05-12T10:22:05.860Z,79.22
2023-05-12T10:24:33.962Z,78.95
2023-05-12T10:27:02.225Z,79.51
2023-05-12T10:29:31.208Z,79.16
2023-05-12T10:31:59.940Z,78.10
2023-05-12T10:34:46.298Z,80.80
2023-05-12T10:37:14.494Z,79.05
2023-05-12T10:39:50.061Z,80.84
2023-05-12T10:42:27.201Z,77.90
2023-05-12T10:44:57.041Z,80.32
2023-05-12T10:47:37.677Z,79.80
2023-05-12T10:50:06.265Z,81.88
2023-05-12T10:52:34.519Z,79.37
2023-05-12T10:55:03.914Z,79.23
2023-05-12T10:57:33.925Z,78.97
2023-05-12T11:00:04.108Z,80.36
2023-05-12T11:02:36.252Z,80.15
2023-05-12T11:05:17.917Z,80.01
2023-05-12T11:07:50.882Z,81.53
2023-05-12T11:10:19.510Z,81.94
2023-05-12T11:12:48.308Z,78.04
2023-05-12T11:15:18.112Z,76.81
2023-05-12T11:17:47.373Z,76.16
2023-05-12T11:20:30.216Z,75.18
2023-05-12T11:22:59.297Z,74.97
2023-05-12T11:25:30.456Z,74.09
2023-05-12T11:27:58.772Z,72.69
2023-05-12T11:30:27.348Z,71.97
2023-05-12T11:33:03.940Z,70.98
2023-05-12T11:35:33.238Z,69.52
2023-05-12T11:38:01.581Z,69.46
2023-05-12T11:40:29.895Z,68.35
2023-05-12T11:42:58.259Z,68.29
2023-05-12T11:45:28.173Z,69.51
2023-05-12T11:48:08.954Z,68.93
2023-05-12T11:50:40.318Z,68.32
2023-05-12T11:53:12.062Z,66.31
2023-05-12T11:55:48.355Z,64.04
2023-05-12T11:58:23.788Z,65.64
2023-05-12T12:00:52.093Z,65.58
2023-05-12T12:03:20.620Z,59.15
2023-05-12T12:06:02.479Z,58.14
2023-05-12T12:08:31.045Z,56.20
2023-05-12T12:11:01.349Z,60.61
2023-05-12T12:13:31.386Z,58.81
2023-05-12T12:15:59.594Z,62.30
2023-05-12T12:18:28.607Z,61.07
2023-05-12T12:20:56.967Z,60.78
2023-05-12T12:23:25.265Z,59.66
2023-05-12T12:25:53.366Z,60.09
2023-05-12T12:28:21.918Z,60.35
2023-05-12T12:30:50.080Z,61.42
2023-05-12T12:33:20.550Z,57.07
2023-05-12T12:35:49.522Z,59.09
2023-05-12T12:38:17.912Z,56.50
2023-05-12T12:40:46.702Z,59.78
2023-05-12T12:43:15.492Z,58.97
2023-05-12T12:45:43.774Z,57.91
2023-05-12T12:48:12.012Z,56.84
2023-05-12T12:50:40.061Z,56.54
2023-05-12T12:53:08.217Z,57.46
2023-05-12T12:55:36.216Z,56.69
2023-05-12T12:58:04.417Z,53.98
2023-05-12T13:00:32.514Z,54.61
2023-05-12T13:03:00.902Z,54.12
2023-05-12T13:05:29.248Z,54.29
2023-05-12T13:07:57.308Z,53.25
2023-05-12T13:10:26.741Z,53.19
2023-05-12T13:12:55.393Z,55.51
2023-05-12T13:15:23.842Z,55.47
2023-05-12T13:17:53.073Z,55.07
2023-05-12T13:20:21.342Z,54.51
2023-05-12T13:22:49.697Z,50.89
2023-05-12T13:25:17.884Z,53.07
2023-05-12T13:27:45.975Z,53.21
2023-05-12T13:30:14.458Z,52.82
2023-05-12T13:32:42.770Z,52.49
2023-05-12T13:35:10.982Z,52.81
2023-05-12T13:37:39.181Z,48.22
2023-05-12T13:40:08.040Z,50.63
2023-05-12T13:42:36.292Z,50.23
2023-05-12T13:45:04.390Z,51.66
2023-05-12T13:47:32.485Z,51.38
2023-05-12T13:50:00.549Z,50.70
2023-05-12T13:52:28.986Z,51.56
2023-05-12T13:54:56.993Z,51.93
2023-05-12T13:57:25.028Z,51.72
2023-05-12T13:59:53.631Z,52.76
2023-05-12T14:02:21.670Z,53.57
2023-05-12T14:04:50.420Z,54.87
2023-05-12T14:07:20.646Z,55.09
2023-05-12T14:09:48.724Z,56.41
2023-05-12T14:12:16.707Z,56.37
2023-05-12T14:14:50.944Z,57.52
2023-05-12T14:17:20.063Z,58.38
2023-05-12T14:19:48.090Z,58.84
2023-05-12T14:22:25.327Z,58.94
2023-05-12T14:24:54.765Z,59.19
2023-05-12T14:27:22.711Z,59.22
2023-05-12T14:29:50.789Z,58.33
2023-05-12T14:32:19.561Z,58.76
2023-05-12T14:34:47.530Z,58.98
2023-05-12T14:37:15.593Z,58.46
2023-05-12T14:39:43.587Z,58.85
2023-05-12T14:42:11.506Z,58.94
2023-05-12T14:44:39.570Z,58.42
2023-05-12T14:47:09.506Z,58.38
2023-05-12T14:49:37.847Z,57.34
2023-05-12T14:52:06.190Z,58.18
2023-05-12T14:54:34.878Z,59.49
2023-05-12T14:57:02.855Z,59.49
2023-05-12T14:59:32.097Z,58.77
2023-05-12T15:02:00.210Z,59.14
2023-05-12T15:04:28.934Z,59.70
2023-05-12T15:06:56.840Z,58.66
2023-05-12T15:09:24.846Z,57.64
2023-05-12T15:11:52.905Z,57.59
2023-05-12T15:14:20.884Z,57.74
2023-05-12T15:16:48.896Z,58.01
2023-05-12T15:19:18.741Z,57.76
2023-05-12T15:21:46.710Z,57.86
2023-05-12T15:24:14.642Z,58.28
2023-05-12T15:26:42.653Z,58.21
2023-05-12T15:29:10.667Z,58.43
2023-05-12T15:31:38.759Z,59.64
2023-05-12T15:34:06.948Z,60.11
2023-05-12T15:36:35.297Z,60.15
2023-05-12T15:39:05.216Z,58.74
2023-05-12T15:41:33.244Z,59.31
2023-05-12T15:44:01.278Z,60.12
2023-05-12T15:46:29.385Z,60.72
2023-05-12T15:48:57.868Z,60.46
2023-05-12T15:51:25.985Z,61.02
2023-05-12T15:53:54.075Z,60.83
2023-05-12T15:56:23.295Z,60.49
2023-05-12T15:58:51.316Z,61.39
2023-05-12T16:01:19.439Z,62.24
2023-05-12T16:03:47.731Z,62.98
2023-05-12T16:06:15.777Z,63.71
2023-05-12T16:08:43.799Z,62.96
2023-05-12T16:11:11.896Z,63.05
2023-05-12T16:13:40.092Z,62.98
2023-05-12T16:16:09.382Z,62.14
2023-05-12T16:18:37.417Z,63.01
2023-05-12T16:21:05.893Z,63.39
2023-05-12T16:23:34.015Z,62.79
2023-05-12T16:26:02.158Z,62.46
2023-05-12T16:28:30.171Z,61.54
2023-05-12T16:30:58.166Z,61.92
2023-05-12T16:33:26.481Z,61.92
2023-05-12T16:35:54.573Z,61.36
2023-05-12T16:38:22.546Z,62.12
2023-05-12T16:40:50.722Z,61.45
2023-05-12T16:43:18.820Z,62.05
2023-05-12T16:45:46.984Z,63.15
2023-05-12T16:48:15.022Z,61.13
2023-05-12T16:50:43.069Z,62.37
2023-05-12T16:53:11.077Z,62.69
2023-05-12T16:55:39.081Z,63.62
2023-05-12T16:58:08.600Z,64.05
2023-05-12T17:00:36.571Z,64.58
2023-05-12T17:03:05.837Z,66.07
2023-05-12T17:05:34.720Z,64.83
2023-05-12T17:08:02.713Z,63.79
2023-05-12T17:10:30.830Z,64.51
2023-05-12T17:13:00.064Z,64.65
2023-05-12T17:15:28.518Z,65.63
2023-05-12T17:17:56.530Z,65.24
2023-05-12T17:20:24.758Z,65.57
2023-05-12T17:22:53.069Z,65.92
2023-05-12T17:25:21.567Z,66.71
2023-05-12T17:27:50.603Z,66.20
2023-05-12T17:30:19.745Z,66.41
2023-05-12T17:32:47.800Z,67.18
2023-05-12T17:35:16.350Z,67.64
2023-05-12T17:37:44.474Z,68.03
2023-05-12T17:40:17.535Z,68.95
2023-05-12T17:42:45.976Z,68.03
2023-05-12T17:45:16.766Z,68.52
2023-05-12T17:47:45.033Z,68.72
2023-05-12T17:50:15.001Z,69.62
2023-05-12T17:52:44.872Z,69.21
2023-05-12T17:55:12.847Z,68.97
2023-05-12T17:57:40.777Z,70.69
2023-05-12T18:00:11.223Z,70.08
2023-05-12T18:02:39.516Z,70.98
2023-05-12T18:05:08.882Z,70.80
2023-05-12T18:07:38.924Z,70.96
2023-05-12T18:10:11.253Z,71.70
2023-05-12T18:12:40.246Z,74.20
2023-05-12T18:15:08.790Z,73.34
2023-05-12T18:17:37.090Z,72.13
2023-05-12T18:20:05.436Z,72.85
2023-05-12T18:22:33.441Z,72.33
2023-05-12T18:27:29.346Z,71.76
2023-05-12T18:29:57.401Z,72.83
2023-05-12T18:32:26.340Z,72.27
2023-05-12T18:34:54.384Z,73.05
2023-05-12T18:37:22.909Z,73.55
2023-05-12T18:39:50.888Z,73.76
2023-05-12T18:42:18.986Z,74.49
2023-05-12T18:44:46.997Z,74.30
2023-05-12T18:47:14.937Z,74.17
2023-05-12T18:49:42.919Z,75.29
2023-05-12T18:52:10.904Z,75.12
2023-05-12T18:54:39.014Z,75.37
2023-05-12T18:57:07.283Z,76.54
2023-05-12T18:59:35.317Z,76.60
2023-05-12T19:02:03.381Z,76.96
2023-05-12T19:04:31.500Z,78.05
2023-05-12T19:06:59.480Z,77.53
2023-05-12T19:09:27.557Z,78.27
2023-05-12T19:11:55.526Z,77.94
2023-05-12T19:14:23.998Z,78.39
2023-05-12T19:16:52.002Z,78.89
2023-05-12T19:19:20.021Z,80.96
2023-05-12T19:21:47.996Z,80.94
2023-05-12T19:24:16.411Z,80.97
2023-05-12T19:26:44.477Z,80.79
2023-05-12T19:29:13.380Z,81.43
2023-05-12T19:31:41.409Z,81.59
2023-05-12T19:34:09.441Z,82.95
2023-05-12T19:36:37.418Z,83.14
2023-05-12T19:39:05.520Z,82.23
2023-05-12T19:41:33.469Z,83.17
2023-05-12T19:44:01.442Z,83.08
2023-05-12T19:46:30.397Z,83.51
2023-05-12T19:48:58.423Z,84.35
2023-05-12T19:51:26.503Z,83.73
2023-05-12T19:53:54.591Z,84.67
2023-05-12T19:56:22.572Z,84.88
2023-05-12T19:58:50.634Z,84.22
2023-05-12T20:01:18.610Z,84.65
2023-05-12T20:03:46.712Z,85.89
2023-05-12T20:06:14.814Z,86.08
2023-05-12T20:08:42.768Z,86.34
2023-05-12T20:11:10.787Z,86.73
2023-05-12T20:13:38.822Z,86.24
2023-05-12T20:16:07.223Z,87.88
2023-05-12T20:18:35.271Z,88.02
2023-05-12T20:21:03.364Z,87.40
2023-05-12T20:23:31.479Z,87.63
2023-05-12T20:25:59.448Z,87.14
2023-05-12T20:28:27.503Z,88.60
2023-05-12T20:30:55.497Z,89.20
2023-05-12T20:33:23.503Z,89.62
2023-05-12T20:35:51.664Z,89.56
2023-05-12T20:38:19.675Z,89.82
2023-05-12T20:40:47.855Z,89.16
2023-05-12T20:43:15.877Z,90.57
2023-05-12T20:45:43.897Z,90.82
2023-05-12T20:48:11.997Z,91.58
2023-05-12T20:50:40.985Z,91.78
2023-05-12T20:53:09.018Z,92.27
2023-05-12T20:55:38.047Z,92.05
2023-05-12T20:58:06.027Z,93.13
2023-05-12T21:00:34.308Z,91.65
2023-05-12T21:03:04.227Z,92.40
2023-05-12T21:05:32.240Z,92.68
2023-05-12T21:08:00.632Z,93.75
2023-05-12T21:10:28.665Z,95.48
2023-05-12T21:12:56.756Z,95.51
2023-05-12T21:15:26.572Z,95.67
2023-05-12T21:17:54.726Z,96.11
2023-05-12T21:20:23.022Z,96.06
2023-05-12T21:22:51.352Z,96.49
2023-05-12T21:25:19.402Z,96.49
2023-05-12T21:27:48.813Z,97.74
2023-05-12T21:30:16.950Z,97.81
2023-05-12T21:32:44.975Z,97.07
2023-05-12T21:35:12.923Z,97.71
2023-05-12T21:37:40.868Z,98.75
2023-05-12T21:40:09.441Z,99.54
2023-05-12T21:42:37.537Z,99.88
2023-05-12T21:45:05.838Z,100.00
2023-05-12T21:47:33.996Z,100.00
2023-05-12T21:50:02.263Z,100.00
2023-05-12T21:52:30.244Z,100.00
2023-05-12T21:54:58.294Z,100.00
2023-05-12T21:57:26.395Z,100.00
2023-05-12T21:59:54.433Z,100.00
2023-05-12T22:02:22.520Z,100.00
2023-05-12T22:04:50.515Z,100.00
2023-05-12T22:07:18.569Z,100.00
2023-05-12T22:09:46.633Z,100.00
2023-05-12T22:12:18.303Z,100.00
2023-05-12T22:14:46.530Z,100.00
2023-05-12T22:17:14.801Z,100.00
2023-05-12T22:19:42.919Z,100.00
2023-05-12T22:22:10.956Z,100.00
2023-05-12T22:27:06.351Z,100.00
2023-05-12T22:29:34.281Z,100.00
2023-05-12T22:32:02.258Z,100.00
2023-05-12T22:34:30.249Z,100.00
2023-05-12T22:36:58.202Z,100.00
2023-05-12T22:39:26.238Z,100.00
2023-05-12T22:41:54.212Z,100.00
2023-05-12T22:44:22.184Z,100.00
2023-05-12T22:46:50.232Z,100.00
2023-05-12T22:49:18.249Z,100.00
2023-05-12T22:51:46.174Z,100.00
2023-05-12T22:54:14.124Z,100.00
2023-05-12T22:56:42.337Z,100.00
2023-05-12T22:59:10.249Z,100.00
2023-05-12T23:01:38.330Z,100.00
2023-05-12T23:04:06.312Z,100.00
2023-05-12T23:06:34.308Z,100.00
2023-05-12T23:09:02.385Z,100.00
2023-05-12T23:11:30.314Z,100.00
2023-05-12T23:13:58.751Z,100.00
2023-05-12T23:16:27.001Z,100.00
2023-05-12T23:18:55.207Z,100.00
2023-05-12T23:21:23.305Z,100.00
2023-05-12T23:23:51.316Z,100.00
2023-05-12T23:26:19.648Z,100.00
2023-05-12T23:28:47.659Z,100.00
2023-05-12T23:31:15.640Z,100.00
2023-05-12T23:33:43.769Z,100.00
2023-05-12T23:36:11.812Z,100.00
2023-05-12T23:38:39.784Z,100.00
2023-05-12T23:41:07.725Z,100.00
2023-05-12T23:43:35.668Z,100.00
2023-05-12T23:46:03.872Z,100.00
2023-05-12T23:48:31.927Z,100.00
2023-05-12T23:50:59.936Z,100.00
2023-05-12T23:53:27.897Z,100.00
2023-05-12T23:55:55.829Z,100.00
2023-05-12T23:58:23.882Z,100.00
